sensor_id;sensor_type;location;lat;lon;timestamp;temperature;humidity
66831;DHT22;53739;44.224;22.528;2023-04-25T00:02:22;358.70;2329.60
66831;DHT22;53739;44.224;22.528;2023-04-25T00:04:48;358.80;2329.60
66831;DHT22;53739;44.224;22.528;2023-04-25T00:07:14;358.80;2329.60
66831;DHT22;53739;44.224;22.528;2023-04-25T00:09:41;358.80;2329.60
66831;DHT22;53739;44.224;22.528;2023-04-25T00:12:07;358.80;2329.60
66831;DHT22;53739;44.224;22.528;2023-04-25T00:14:32;358.80;2329.60
66831;DHT22;53739;44.224;22.528;2023-04-25T00:17:01;358.80;2329.60
66831;DHT22;53739;44.224;22.528;2023-04-25T00:19:28;358.80;2329.60
66831;DHT22;53739;44.224;22.528;2023-04-25T00:21:57;358.80;2329.60
66831;DHT22;53739;44.224;22.528;2023-04-25T00:24:23;358.80;2329.60
66831;DHT22;53739;44.224;22.528;2023-04-25T00:26:49;358.70;2329.60
66831;DHT22;53739;44.224;22.528;2023-04-25T00:29:15;358.60;2329.60
66831;DHT22;53739;44.224;22.528;2023-04-25T00:31:41;358.60;2329.60
66831;DHT22;53739;44.224;22.528;2023-04-25T00:34:07;358.70;2329.60
66831;DHT22;53739;44.224;22.528;2023-04-25T00:36:33;358.60;2329.60
66831;DHT22;53739;44.224;22.528;2023-04-25T00:38:59;358.60;2329.60
66831;DHT22;53739;44.224;22.528;2023-04-25T00:41:26;358.50;2329.60
66831;DHT22;53739;44.224;22.528;2023-04-25T00:43:53;358.50;2329.60
66831;DHT22;53739;44.224;22.528;2023-04-25T00:46:19;358.50;2329.60
66831;DHT22;53739;44.224;22.528;2023-04-25T00:48:48;358.40;2329.60
66831;DHT22;53739;44.224;22.528;2023-04-25T00:51:16;358.40;2329.60
66831;DHT22;53739;44.224;22.528;2023-04-25T00:53:44;358.40;2329.60
66831;DHT22;53739;44.224;22.528;2023-04-25T00:56:13;358.50;2329.60
66831;DHT22;53739;44.224;22.528;2023-04-25T00:58:41;358.50;2329.60
66831;DHT22;53739;44.224;22.528;2023-04-25T01:01:14;358.40;2329.60
66831;DHT22;53739;44.224;22.528;2023-04-25T01:03:44;333.70;2329.60
66831;DHT22;53739;44.224;22.528;2023-04-25T01:06:16;358.40;2329.60
66831;DHT22;53739;44.224;22.528;2023-04-25T01:08:42;333.70;2329.60
66831;DHT22;53739;44.224;22.528;2023-04-25T01:11:08;333.70;2329.60
66831;DHT22;53739;44.224;22.528;2023-04-25T01:13:35;333.70;2329.60
66831;DHT22;53739;44.224;22.528;2023-04-25T01:16:02;333.70;2329.60
66831;DHT22;53739;44.224;22.528;2023-04-25T01:18:28;358.40;2329.60
66831;DHT22;53739;44.224;22.528;2023-04-25T01:20:54;333.70;2329.60
66831;DHT22;53739;44.224;22.528;2023-04-25T01:23:21;333.70;2329.60
66831;DHT22;53739;44.224;22.528;2023-04-25T01:25:48;333.70;2329.60
66831;DHT22;53739;44.224;22.528;2023-04-25T01:28:15;333.70;2329.60
66831;DHT22;53739;44.224;22.528;2023-04-25T01:30:41;358.40;2329.60
66831;DHT22;53739;44.224;22.528;2023-04-25T01:33:11;333.70;2329.60
66831;DHT22;53739;44.224;22.528;2023-04-25T01:35:42;333.70;2329.60
66831;DHT22;53739;44.224;22.528;2023-04-25T01:41:02;333.70;2329.60
66831;DHT22;53739;44.224;22.528;2023-04-25T01:43:28;333.60;2329.60
66831;DHT22;53739;44.224;22.528;2023-04-25T01:45:54;333.60;2329.60
66831;DHT22;53739;44.224;22.528;2023-04-25T01:48:21;333.60;2329.60
66831;DHT22;53739;44.224;22.528;2023-04-25T01:50:47;333.50;2329.60
66831;DHT22;53739;44.224;22.528;2023-04-25T01:53:18;333.60;2329.60
66831;DHT22;53739;44.224;22.528;2023-04-25T02:02:33;333.70;2329.60
66831;DHT22;53739;44.224;22.528;2023-04-25T02:04:59;333.70;2329.60
66831;DHT22;53739;44.224;22.528;2023-04-25T02:07:26;333.70;2329.60
66831;DHT22;53739;44.224;22.528;2023-04-25T02:09:52;333.70;2329.60
66831;DHT22;53739;44.224;22.528;2023-04-25T02:12:19;333.70;2329.60
66831;DHT22;53739;44.224;22.528;2023-04-25T02:14:50;333.70;2329.60
66831;DHT22;53739;44.224;22.528;2023-04-25T02:17:38;333.70;2329.60
66831;DHT22;53739;44.224;22.528;2023-04-25T02:20:11;333.70;2329.60
66831;DHT22;53739;44.224;22.528;2023-04-25T02:22:55;333.70;2329.60
66831;DHT22;53739;44.224;22.528;2023-04-25T02:28:07;333.70;2329.60
66831;DHT22;53739;44.224;22.528;2023-04-25T02:30:57;333.70;2329.60
66831;DHT22;53739;44.224;22.528;2023-04-25T02:33:32;333.70;2329.60
66831;DHT22;53739;44.224;22.528;2023-04-25T02:36:01;333.70;2329.60
66831;DHT22;53739;44.224;22.528;2023-04-25T02:38:33;333.40;2329.60
66831;DHT22;53739;44.224;22.528;2023-04-25T02:41:14;333.60;2329.60
66831;DHT22;53739;44.224;22.528;2023-04-25T02:53:53;333.50;2329.60
66831;DHT22;53739;44.224;22.528;2023-04-25T02:56:36;333.50;2329.60
66831;DHT22;53739;44.224;22.528;2023-04-25T03:02:08;333.60;2329.60
66831;DHT22;53739;44.224;22.528;2023-04-25T03:04:35;333.60;2329.60
66831;DHT22;53739;44.224;22.528;2023-04-25T03:07:01;333.50;2329.60
66831;DHT22;53739;44.224;22.528;2023-04-25T03:09:35;333.50;2329.60
66831;DHT22;53739;44.224;22.528;2023-04-25T03:12:07;333.30;2329.60
66831;DHT22;53739;44.224;22.528;2023-04-25T08:02:38;410.30;2355.20
66831;DHT22;53739;44.224;22.528;2023-04-25T08:12:00;435.60;2355.20
66831;DHT22;53739;44.224;22.528;2023-04-25T08:14:40;435.70;2355.20
66831;DHT22;53739;44.224;22.528;2023-04-25T08:17:10;435.80;2355.20
66831;DHT22;53739;44.224;22.528;2023-04-25T08:19:38;435.80;2355.20
66831;DHT22;53739;44.224;22.528;2023-04-25T08:22:07;435.90;2355.20
66831;DHT22;53739;44.224;22.528;2023-04-25T08:24:38;435.80;128.00
66831;DHT22;53739;44.224;22.528;2023-04-25T08:27:07;435.80;588.80
66831;DHT22;53739;44.224;22.528;2023-04-25T08:29:33;435.80;2355.20
66831;DHT22;53739;44.224;22.528;2023-04-25T08:31:59;435.80;2355.20
66831;DHT22;53739;44.224;22.528;2023-04-25T08:34:26;435.80;2329.60
66831;DHT22;53739;44.224;22.528;2023-04-25T08:36:52;435.70;2355.20
66831;DHT22;53739;44.224;22.528;2023-04-25T08:39:18;435.80;2355.20
66831;DHT22;53739;44.224;22.528;2023-04-25T08:41:46;435.60;2355.20
66831;DHT22;53739;44.224;22.528;2023-04-25T08:44:13;435.80;2355.20
66831;DHT22;53739;44.224;22.528;2023-04-25T08:46:40;435.70;2355.20
66831;DHT22;53739;44.224;22.528;2023-04-25T08:49:07;435.80;2355.20
66831;DHT22;53739;44.224;22.528;2023-04-25T08:51:44;435.70;2355.20
66831;DHT22;53739;44.224;22.528;2023-04-25T08:54:14;435.60;2355.20
66831;DHT22;53739;44.224;22.528;2023-04-25T08:56:48;435.60;2355.20
66831;DHT22;53739;44.224;22.528;2023-04-25T08:59:15;435.50;2355.20
66831;DHT22;53739;44.224;22.528;2023-04-25T09:01:50;435.60;2355.20
66831;DHT22;53739;44.224;22.528;2023-04-25T09:07:38;435.30;2355.20
66831;DHT22;53739;44.224;22.528;2023-04-25T10:02:33;410.50;2355.20
66831;DHT22;53739;44.224;22.528;2023-04-25T10:05:02;410.20;2355.20
66831;DHT22;53739;44.224;22.528;2023-04-25T10:07:31;409.90;2355.20
66831;DHT22;53739;44.224;22.528;2023-04-25T10:10:01;409.70;2355.20
66831;DHT22;53739;44.224;22.528;2023-04-25T10:12:33;409.60;2355.20
66831;DHT22;53739;44.224;22.528;2023-04-25T10:15:03;384.90;2329.60
66831;DHT22;53739;44.224;22.528;2023-04-25T10:17:30;384.70;2329.60
66831;DHT22;53739;44.224;22.528;2023-04-25T10:19:57;384.70;2329.60
66831;DHT22;53739;44.224;22.528;2023-04-25T10:22:34;384.60;2329.60
66831;DHT22;53739;44.224;22.528;2023-04-25T10:25:04;384.70;2329.60
66831;DHT22;53739;44.224;22.528;2023-04-25T10:27:35;384.60;2329.60
66831;DHT22;53739;44.224;22.528;2023-04-25T10:30:09;384.50;2329.60
66831;DHT22;53739;44.224;22.528;2023-04-25T10:32:44;384.50;2329.60
66831;DHT22;53739;44.224;22.528;2023-04-25T10:35:18;384.40;2329.60
66831;DHT22;53739;44.224;22.528;2023-04-25T10:38:03;384.40;2329.60
66831;DHT22;53739;44.224;22.528;2023-04-25T10:40:30;384.30;2329.60
66831;DHT22;53739;44.224;22.528;2023-04-25T10:46:02;384.30;2329.60
66831;DHT22;53739;44.224;22.528;2023-04-25T10:48:31;384.30;2329.60
66831;DHT22;53739;44.224;22.528;2023-04-25T10:51:08;384.20;2329.60
66831;DHT22;53739;44.224;22.528;2023-04-25T10:53:34;384.10;2329.60
66831;DHT22;53739;44.224;22.528;2023-04-25T10:56:00;384.10;2329.60
66831;DHT22;53739;44.224;22.528;2023-04-25T10:58:26;384.30;2329.60
66831;DHT22;53739;44.224;22.528;2023-04-25T11:00:52;384.40;2329.60
66831;DHT22;53739;44.224;22.528;2023-04-25T11:06:31;384.70;2329.60
66831;DHT22;53739;44.224;22.528;2023-04-25T11:09:03;384.80;2329.60
66831;DHT22;53739;44.224;22.528;2023-04-25T11:11:36;384.90;2329.60
66831;DHT22;53739;44.224;22.528;2023-04-25T11:14:02;409.60;2355.20
66831;DHT22;53739;44.224;22.528;2023-04-25T11:16:28;384.90;2329.60
66831;DHT22;53739;44.224;22.528;2023-04-25T11:18:57;409.60;2355.20
66831;DHT22;53739;44.224;22.528;2023-04-25T11:21:24;384.90;2329.60
66831;DHT22;53739;44.224;22.528;2023-04-25T11:23:51;384.70;128.00
66831;DHT22;53739;44.224;22.528;2023-04-25T11:26:19;384.50;2329.60
66831;DHT22;53739;44.224;22.528;2023-04-25T11:28:46;384.30;2329.60
66831;DHT22;53739;44.224;22.528;2023-04-25T11:31:14;384.20;2329.60
66831;DHT22;53739;44.224;22.528;2023-04-25T11:33:40;384.00;2329.60
66831;DHT22;53739;44.224;22.528;2023-04-25T11:36:06;359.30;2329.60
66831;DHT22;53739;44.224;22.528;2023-04-25T11:38:32;359.30;2329.60
66831;DHT22;53739;44.224;22.528;2023-04-25T11:40:58;359.30;2329.60
66831;DHT22;53739;44.224;22.528;2023-04-25T11:43:25;359.30;2329.60
66831;DHT22;53739;44.224;22.528;2023-04-25T11:45:51;359.30;2329.60
66831;DHT22;53739;44.224;22.528;2023-04-25T11:48:20;384.00;2329.60
66831;DHT22;53739;44.224;22.528;2023-04-25T11:50:46;384.00;2329.60
66831;DHT22;53739;44.224;22.528;2023-04-25T11:53:12;384.00;537.60
66831;DHT22;53739;44.224;22.528;2023-04-25T11:55:38;384.00;1996.80
66831;DHT22;53739;44.224;22.528;2023-04-25T11:58:05;384.00;2329.60
66831;DHT22;53739;44.224;22.528;2023-04-25T12:00:32;359.30;2329.60
66831;DHT22;53739;44.224;22.528;2023-04-25T12:02:58;359.30;128.00
66831;DHT22;53739;44.224;22.528;2023-04-25T12:05:26;359.20;1587.20
66831;DHT22;53739;44.224;22.528;2023-04-25T12:07:52;359.30;128.00
66831;DHT22;53739;44.224;22.528;2023-04-25T12:10:18;384.00;2329.60
66831;DHT22;53739;44.224;22.528;2023-04-25T12:12:45;359.30;128.00
66831;DHT22;53739;44.224;22.528;2023-04-25T12:15:13;384.00;1177.60
66831;DHT22;53739;44.224;22.528;2023-04-25T12:17:50;384.10;2329.60
66831;DHT22;53739;44.224;22.528;2023-04-25T12:20:20;384.20;2329.60
66831;DHT22;53739;44.224;22.528;2023-04-25T12:22:50;384.40;2329.60
66831;DHT22;53739;44.224;22.528;2023-04-25T12:25:41;384.60;2329.60
66831;DHT22;53739;44.224;22.528;2023-04-25T12:28:18;384.80;2329.60
66831;DHT22;53739;44.224;22.528;2023-04-25T12:30:59;384.90;128.00
66831;DHT22;53739;44.224;22.528;2023-04-25T12:33:34;384.90;128.00
66831;DHT22;53739;44.224;22.528;2023-04-25T12:36:01;384.90;128.00
66831;DHT22;53739;44.224;22.528;2023-04-25T12:38:31;409.60;128.00
66831;DHT22;53739;44.224;22.528;2023-04-25T12:41:00;409.70;128.00
66831;DHT22;53739;44.224;22.528;2023-04-25T12:43:26;409.90;2355.20
66831;DHT22;53739;44.224;22.528;2023-04-25T12:45:53;409.80;128.00
66831;DHT22;53739;44.224;22.528;2023-04-25T12:48:20;410.00;128.00
66831;DHT22;53739;44.224;22.528;2023-04-25T12:50:46;410.30;128.00
66831;DHT22;53739;44.224;22.528;2023-04-25T12:53:24;410.40;128.00
66831;DHT22;53739;44.224;22.528;2023-04-25T12:55:50;435.30;128.00
66831;DHT22;53739;44.224;22.528;2023-04-25T12:58:19;435.40;435.20
66831;DHT22;53739;44.224;22.528;2023-04-25T13:00:45;435.50;128.00
66831;DHT22;53739;44.224;22.528;2023-04-25T13:03:12;435.40;128.00
66831;DHT22;53739;44.224;22.528;2023-04-25T13:05:38;435.50;128.00
66831;DHT22;53739;44.224;22.528;2023-04-25T13:08:04;435.60;128.00
66831;DHT22;53739;44.224;22.528;2023-04-25T13:10:30;435.90;128.00
66831;DHT22;53739;44.224;22.528;2023-04-25T13:12:57;436.10;128.00
66831;DHT22;53739;44.224;22.528;2023-04-25T13:15:22;436.10;128.00
66831;DHT22;53739;44.224;22.528;2023-04-25T13:17:48;436.00;332.80
66831;DHT22;53739;44.224;22.528;2023-04-25T13:20:14;435.80;2304.00
66831;DHT22;53739;44.224;22.528;2023-04-25T13:22:42;435.80;128.00
66831;DHT22;53739;44.224;22.528;2023-04-25T13:25:08;435.80;128.00
66831;DHT22;53739;44.224;22.528;2023-04-25T13:27:34;435.80;128.00
66831;DHT22;53739;44.224;22.528;2023-04-25T13:30:01;435.80;128.00
66831;DHT22;53739;44.224;22.528;2023-04-25T13:32:30;435.70;128.00
66831;DHT22;53739;44.224;22.528;2023-04-25T13:34:56;435.70;128.00
66831;DHT22;53739;44.224;22.528;2023-04-25T13:37:22;435.80;128.00
66831;DHT22;53739;44.224;22.528;2023-04-25T13:39:49;436.10;128.00
66831;DHT22;53739;44.224;22.528;2023-04-25T13:42:16;460.80;128.00
66831;DHT22;53739;44.224;22.528;2023-04-25T13:44:42;460.80;128.00
66831;DHT22;53739;44.224;22.528;2023-04-25T13:47:07;460.90;2380.80
66831;DHT22;53739;44.224;22.528;2023-04-25T13:49:33;461.00;128.00
66831;DHT22;53739;44.224;22.528;2023-04-25T13:51:59;461.20;128.00
66831;DHT22;53739;44.224;22.528;2023-04-25T14:06:39;460.80;2380.80
66831;DHT22;53739;44.224;22.528;2023-04-25T14:09:05;460.80;128.00
66831;DHT22;53739;44.224;22.528;2023-04-25T16:43:10;409.60;128.00
66831;DHT22;53739;44.224;22.528;2023-04-25T16:45:36;384.90;435.20
66831;DHT22;53739;44.224;22.528;2023-04-25T16:48:02;384.70;128.00
66831;DHT22;53739;44.224;22.528;2023-04-25T16:50:28;384.70;128.00
66831;DHT22;53739;44.224;22.528;2023-04-25T16:55:20;384.80;128.00
66831;DHT22;53739;44.224;22.528;2023-04-25T16:57:45;384.60;128.00
66831;DHT22;53739;44.224;22.528;2023-04-25T17:00:12;384.60;128.00
66831;DHT22;53739;44.224;22.528;2023-04-25T17:02:38;384.50;128.00
66831;DHT22;53739;44.224;22.528;2023-04-25T17:05:04;384.40;128.00
66831;DHT22;53739;44.224;22.528;2023-04-25T17:07:30;384.40;128.00
66831;DHT22;53739;44.224;22.528;2023-04-25T17:09:56;384.30;128.00
66831;DHT22;53739;44.224;22.528;2023-04-25T17:12:22;384.30;128.00
66831;DHT22;53739;44.224;22.528;2023-04-25T17:14:48;384.30;128.00
66831;DHT22;53739;44.224;22.528;2023-04-25T17:17:14;384.10;128.00
66831;DHT22;53739;44.224;22.528;2023-04-25T17:19:41;384.10;384.00
66831;DHT22;53739;44.224;22.528;2023-04-25T17:22:06;384.00;128.00
66831;DHT22;53739;44.224;22.528;2023-04-25T17:24:33;384.00;128.00
66831;DHT22;53739;44.224;22.528;2023-04-25T17:26:59;359.30;128.00
66831;DHT22;53739;44.224;22.528;2023-04-25T17:29:26;359.20;128.00
66831;DHT22;53739;44.224;22.528;2023-04-25T17:31:52;359.10;128.00
66831;DHT22;53739;44.224;22.528;2023-04-25T17:34:18;359.00;128.00
66831;DHT22;53739;44.224;22.528;2023-04-25T17:36:44;359.00;128.00
66831;DHT22;53739;44.224;22.528;2023-04-25T17:39:10;358.80;128.00
66831;DHT22;53739;44.224;22.528;2023-04-25T17:41:39;358.80;128.00
66831;DHT22;53739;44.224;22.528;2023-04-25T17:44:05;358.80;128.00
66831;DHT22;53739;44.224;22.528;2023-04-25T17:46:31;358.70;2329.60
66831;DHT22;53739;44.224;22.528;2023-04-25T17:48:57;358.60;1024.00
66831;DHT22;53739;44.224;22.528;2023-04-25T17:51:23;358.60;870.40
66831;DHT22;53739;44.224;22.528;2023-04-25T17:53:49;358.60;2099.20
66831;DHT22;53739;44.224;22.528;2023-04-25T17:56:16;358.50;2329.60
66831;DHT22;53739;44.224;22.528;2023-04-25T17:58:42;358.50;2329.60
66831;DHT22;53739;44.224;22.528;2023-04-25T18:01:07;358.40;2329.60
66831;DHT22;53739;44.224;22.528;2023-04-25T18:03:33;333.70;2329.60
66831;DHT22;53739;44.224;22.528;2023-04-25T18:06:00;333.70;2329.60
66831;DHT22;53739;44.224;22.528;2023-04-25T18:08:26;333.70;2329.60
66831;DHT22;53739;44.224;22.528;2023-04-25T18:10:52;333.60;2329.60
66831;DHT22;53739;44.224;22.528;2023-04-25T18:13:18;333.60;2329.60
66831;DHT22;53739;44.224;22.528;2023-04-25T18:15:43;333.50;2329.60
66831;DHT22;53739;44.224;22.528;2023-04-25T18:18:09;333.50;2329.60
66831;DHT22;53739;44.224;22.528;2023-04-25T18:20:44;333.40;2329.60
66831;DHT22;53739;44.224;22.528;2023-04-25T18:23:10;333.30;2329.60
66831;DHT22;53739;44.224;22.528;2023-04-25T18:25:36;333.30;2329.60
66831;DHT22;53739;44.224;22.528;2023-04-25T18:28:02;333.30;2329.60
66831;DHT22;53739;44.224;22.528;2023-04-25T18:35:23;333.20;2329.60
66831;DHT22;53739;44.224;22.528;2023-04-25T18:37:49;333.00;2329.60
66831;DHT22;53739;44.224;22.528;2023-04-25T18:40:15;332.90;2329.60
66831;DHT22;53739;44.224;22.528;2023-04-25T18:42:41;332.90;2329.60
66831;DHT22;53739;44.224;22.528;2023-04-25T18:45:10;332.80;2329.60
66831;DHT22;53739;44.224;22.528;2023-04-25T18:47:36;332.80;2329.60
66831;DHT22;53739;44.224;22.528;2023-04-25T18:50:02;308.10;2304.00
66831;DHT22;53739;44.224;22.528;2023-04-25T18:52:29;308.10;2304.00
66831;DHT22;53739;44.224;22.528;2023-04-25T18:55:02;332.80;2329.60
66831;DHT22;53739;44.224;22.528;2023-04-25T18:57:28;332.80;2329.60
66831;DHT22;53739;44.224;22.528;2023-04-25T18:59:54;332.80;2329.60
66831;DHT22;53739;44.224;22.528;2023-04-25T19:02:20;332.90;2329.60
66831;DHT22;53739;44.224;22.528;2023-04-25T19:04:47;332.90;2329.60
66831;DHT22;53739;44.224;22.528;2023-04-25T19:07:20;332.80;2329.60
66831;DHT22;53739;44.224;22.528;2023-04-25T19:09:47;332.80;2329.60
66831;DHT22;53739;44.224;22.528;2023-04-25T19:12:13;308.10;2304.00
66831;DHT22;53739;44.224;22.528;2023-04-25T19:14:39;308.10;2304.00
66831;DHT22;53739;44.224;22.528;2023-04-25T19:17:05;308.10;2304.00
66831;DHT22;53739;44.224;22.528;2023-04-25T19:19:31;308.00;2304.00
66831;DHT22;53739;44.224;22.528;2023-04-25T19:21:57;307.90;2304.00
66831;DHT22;53739;44.224;22.528;2023-04-25T19:24:23;307.90;2304.00
66831;DHT22;53739;44.224;22.528;2023-04-25T19:26:49;307.80;2304.00
66831;DHT22;53739;44.224;22.528;2023-04-25T19:29:15;307.80;2304.00
66831;DHT22;53739;44.224;22.528;2023-04-25T19:31:42;307.80;2304.00
66831;DHT22;53739;44.224;22.528;2023-04-25T19:34:09;307.80;2304.00
66831;DHT22;53739;44.224;22.528;2023-04-25T19:36:39;307.70;2304.00
66831;DHT22;53739;44.224;22.528;2023-04-25T19:39:06;307.70;2304.00
66831;DHT22;53739;44.224;22.528;2023-04-25T19:41:34;307.60;2304.00
66831;DHT22;53739;44.224;22.528;2023-04-25T19:55:06;307.60;2304.00
66831;DHT22;53739;44.224;22.528;2023-04-25T19:57:36;307.50;2304.00
66831;DHT22;53739;44.224;22.528;2023-04-25T20:00:10;307.30;2304.00
66831;DHT22;53739;44.224;22.528;2023-04-25T20:02:37;307.30;2304.00
66831;DHT22;53739;44.224;22.528;2023-04-25T20:05:07;307.20;2304.00
66831;DHT22;53739;44.224;22.528;2023-04-25T21:28:08;282.20;2278.40
66831;DHT22;53739;44.224;22.528;2023-04-25T21:30:34;282.00;2278.40
66831;DHT22;53739;44.224;22.528;2023-04-25T21:33:01;282.00;2278.40
66831;DHT22;53739;44.224;22.528;2023-04-25T21:35:27;282.00;2278.40
66831;DHT22;53739;44.224;22.528;2023-04-25T21:37:53;282.00;2278.40
66831;DHT22;53739;44.224;22.528;2023-04-25T21:40:19;282.00;2278.40
66831;DHT22;53739;44.224;22.528;2023-04-25T21:42:46;282.00;2278.40
66831;DHT22;53739;44.224;22.528;2023-04-25T21:45:16;282.00;2278.40
66831;DHT22;53739;44.224;22.528;2023-04-25T21:47:42;282.00;2278.40
66831;DHT22;53739;44.224;22.528;2023-04-25T21:50:11;282.00;2278.40
66831;DHT22;53739;44.224;22.528;2023-04-25T23:57:55;256.80;2252.80
